CheckWX is a tool to help pilots better visualize weather data.  It is not intended as a substitute for an official pre-flight weather briefing.

20:54:49 UTC

KSYR TAF
Syracuse Hancock International Airport
Syracuse, New York, USA
KSYR 241736Z 2418/2518 10006KT P6SM BKN100 OVC200 FM250400 10008KT P6SM SCT100 OVC200 WS020/15040KT FM251300 09010KT P6SM -RA SCT025 OVC050 WS020/12040KT FM251500 09010KT 4SM -RA BR BKN015 OVC025 WS020/12040KT

Jan-24@
18:00 UTC

Jan-24 @ 18:00 UTC

Jan-25@
04:00 UTC

Jan-25 @ 04:00 UTC

KSYR 241736Z 2418/2518 10006KT P6SM BKN100 OVC200
Wind
  • 100° at 6 KTS
Cloud Levels
  • Broken at 10,000' AGL
  • Overcast at 20,000' AGL

Jan-25@
04:00 UTC

Jan-25 @ 04:00 UTC

Jan-25@
13:00 UTC

Jan-25 @ 13:00 UTC

FM250400 10008KT P6SM SCT100 OVC200 WS020/15040KT

From

From Standard forecast or significant change

Wind
  • 100° at 8 KTS
Cloud Levels
  • Scattered at 10,000' AGL
  • Overcast at 20,000' AGL

Jan-25@
13:00 UTC

Jan-25 @ 13:00 UTC

Jan-25@
15:00 UTC

Jan-25 @ 15:00 UTC

FM251300 09010KT P6SM -RA SCT025 OVC050 WS020/12040KT

From

From Standard forecast or significant change

Wind
  • 090° at 10 KTS
Conditions
Light Rain
Cloud Levels
  • Scattered at 2,500' AGL
  • Overcast at 5,000' AGL

Jan-25@
15:00 UTC

Jan-25 @ 15:00 UTC

Jan-25@
18:00 UTC

Jan-25 @ 18:00 UTC

FM251500 09010KT 4SM -RA BR BKN015 OVC025 WS020/12040KT

From

From Standard forecast or significant change

Wind
  • 090° at 10 KTS
Conditions
Light Rain, Mist
Cloud Levels
  • Broken at 1,500' AGL
  • Overcast at 2,500' AGL